Time;durP1;ratioP1;P1;durP2;ratioP2;P2;SDS_P1;SDS_P2;PMS_P1;PMS_P2;Temp;Humidity;BMP_temperature;BMP_pressure;BME280_temperature;BME280_humidity;BME280_pressure;Samples;Min_cycle;Max_cycle;Signal;HPM_P1;HPM_P2
2022/04/15 00:00:28;;;;;;;21.25;11.60;;;;;;;;;;4974771;28;20094;-81
2022/04/15 00:02:54;;;;;;;23.60;12.55;;;;;;;;;;4974532;28;20118;-81
2022/04/15 00:05:34;;;;;;;22.95;12.07;;;;;;;;;;4973843;28;20419;-81
2022/04/15 00:08:09;;;;;;;24.33;13.07;;;;;;;;;;4975182;28;20063;-84
2022/04/15 00:10:35;;;;;;;24.60;13.15;;;;;;;;;;4974703;28;20051;-84
2022/04/15 00:13:03;;;;;;;26.77;12.98;;;;;;;;;;4957008;28;20101;-83
2022/04/15 00:15:31;;;;;;;24.92;13.73;;;;;;;;;;4939239;28;20052;-81
2022/04/15 00:17:57;;;;;;;26.85;13.35;;;;;;;;;;4974222;28;20095;-82
2022/04/15 00:20:26;;;;;;;26.73;14.35;;;;;;;;;;4974168;28;20055;-83
2022/04/15 00:22:53;;;;;;;25.33;13.93;;;;;;;;;;4956486;28;20094;-85
2022/04/15 00:25:19;;;;;;;27.65;14.15;;;;;;;;;;4956666;28;20047;-83
2022/04/15 00:27:52;;;;;;;24.58;13.43;;;;;;;;;;4974295;28;20055;-82
2022/04/15 00:30:19;;;;;;;25.80;12.60;;;;;;;;;;4941898;28;20094;-83
2022/04/15 00:32:45;;;;;;;23.75;12.98;;;;;;;;;;4946188;28;20619;-83
2022/04/15 00:35:11;;;;;;;25.55;13.65;;;;;;;;;;4956452;28;20055;-85
2022/04/15 00:37:38;;;;;;;26.75;13.57;;;;;;;;;;4974021;28;20086;-85
2022/04/15 00:40:07;;;;;;;29.15;12.95;;;;;;;;;;4956928;28;20505;-83
2022/04/15 00:42:33;;;;;;;26.83;13.48;;;;;;;;;;4956754;28;20194;-86
2022/04/15 00:45:00;;;;;;;25.75;12.75;;;;;;;;;;4972418;28;20087;-83
2022/04/15 00:47:39;;;;;;;26.75;14.38;;;;;;;;;;4956714;28;20059;-83
2022/04/15 00:50:05;;;;;;;23.20;13.38;;;;;;;;;;4973916;28;20083;-86
2022/04/15 00:52:34;;;;;;;23.70;12.98;;;;;;;;;;4974130;28;20154;-84
2022/04/15 00:55:02;;;;;;;24.20;13.60;;;;;;;;;;4953241;28;20114;-83
2022/04/15 00:57:30;;;;;;;23.92;12.63;;;;;;;;;;4956712;28;20079;-82
2022/04/15 00:59:57;;;;;;;20.30;12.25;;;;;;;;;;4956381;28;20530;-82
2022/04/15 01:02:24;;;;;;;22.13;12.45;;;;;;;;;;4955865;28;20134;-86
2022/04/15 01:04:52;;;;;;;20.23;11.85;;;;;;;;;;4956171;28;20091;-82
2022/04/15 01:07:19;;;;;;;18.70;11.20;;;;;;;;;;4956348;28;20086;-84
2022/04/15 01:09:47;;;;;;;20.02;11.02;;;;;;;;;;4956470;28;20150;-82
2022/04/15 01:12:14;;;;;;;20.35;11.15;;;;;;;;;;4973651;28;20058;-83
2022/04/15 01:14:41;;;;;;;17.45;10.90;;;;;;;;;;4952106;28;20134;-83
2022/04/15 01:17:08;;;;;;;20.73;10.32;;;;;;;;;;4956350;28;20079;-82
2022/04/15 01:19:34;;;;;;;18.70;9.98;;;;;;;;;;4955927;28;20060;-81
2022/04/15 01:22:02;;;;;;;17.92;10.27;;;;;;;;;;4973414;28;20526;-84
2022/04/15 01:24:28;;;;;;;16.55;9.43;;;;;;;;;;4956370;28;20047;-84
2022/04/15 01:26:55;;;;;;;18.63;9.15;;;;;;;;;;4955911;28;20066;-82
2022/04/15 01:29:25;;;;;;;20.58;10.18;;;;;;;;;;4972838;28;20114;-84
2022/04/15 01:31:51;;;;;;;18.00;9.70;;;;;;;;;;4956011;28;20114;-82
2022/04/15 01:34:17;;;;;;;19.63;10.27;;;;;;;;;;4955834;28;20582;-86
2022/04/15 01:36:44;;;;;;;21.08;10.82;;;;;;;;;;4955212;28;20085;-86
2022/04/15 01:39:10;;;;;;;20.30;10.82;;;;;;;;;;4955354;28;20115;-82
2022/04/15 01:41:38;;;;;;;20.80;10.38;;;;;;;;;;4972686;28;20569;-83
2022/04/15 01:44:08;;;;;;;21.83;10.98;;;;;;;;;;4956972;28;20035;-86
2022/04/15 01:46:34;;;;;;;19.10;9.70;;;;;;;;;;4973567;28;20101;-86
2022/04/15 01:49:00;;;;;;;21.08;11.02;;;;;;;;;;4954649;28;20154;-85
2022/04/15 01:51:27;;;;;;;20.35;10.85;;;;;;;;;;4955472;28;20133;-84
2022/04/15 01:53:55;;;;;;;20.60;10.77;;;;;;;;;;4956068;28;20153;-84
2022/04/15 01:56:21;;;;;;;18.20;10.88;;;;;;;;;;4971932;28;20980;-83
2022/04/15 01:58:47;;;;;;;20.60;10.75;;;;;;;;;;4959634;28;20082;-83
2022/04/15 02:01:14;;;;;;;20.35;10.88;;;;;;;;;;4949973;28;20889;-82
2022/04/15 02:03:40;;;;;;;20.50;11.70;;;;;;;;;;4972182;28;20051;-82
2022/04/15 02:06:07;;;;;;;21.48;11.20;;;;;;;;;;4972209;28;20146;-82
2022/04/15 02:08:33;;;;;;;19.13;11.27;;;;;;;;;;4972139;28;20539;-84
2022/04/15 02:10:59;;;;;;;20.00;11.13;;;;;;;;;;4953470;28;20059;-86
2022/04/15 02:13:26;;;;;;;20.95;11.43;;;;;;;;;;4953899;28;20078;-84
2022/04/15 02:15:52;;;;;;;18.40;10.25;;;;;;;;;;4953719;28;20069;-84
2022/04/15 02:18:19;;;;;;;17.67;10.80;;;;;;;;;;4954598;28;20062;-83
2022/04/15 02:20:51;;;;;;;17.38;9.88;;;;;;;;;;4972012;28;20837;-82
2022/04/15 02:23:17;;;;;;;19.17;11.35;;;;;;;;;;4971378;28;20051;-82
2022/04/15 02:25:44;;;;;;;18.33;10.40;;;;;;;;;;4951073;28;20155;-82
2022/04/15 02:28:10;;;;;;;19.00;10.80;;;;;;;;;;4957373;28;20059;-82
2022/04/15 02:30:37;;;;;;;21.55;11.80;;;;;;;;;;4950413;28;20131;-87
2022/04/15 02:33:03;;;;;;;21.13;11.57;;;;;;;;;;4935963;28;20590;-84
2022/04/15 02:35:30;;;;;;;19.77;11.07;;;;;;;;;;4936552;28;20060;-82
2022/04/15 02:37:56;;;;;;;23.98;11.88;;;;;;;;;;4948255;28;21313;-82
2022/04/15 02:40:23;;;;;;;22.85;12.43;;;;;;;;;;4935232;28;20151;-84
2022/04/15 02:42:49;;;;;;;20.50;11.57;;;;;;;;;;4935444;28;20091;-87
2022/04/15 02:45:18;;;;;;;22.77;11.93;;;;;;;;;;4943725;28;20054;-82
2022/04/15 02:47:44;;;;;;;23.77;12.70;;;;;;;;;;4972338;28;20055;-82
2022/04/15 02:50:10;;;;;;;26.17;12.60;;;;;;;;;;4954790;28;20134;-83
2022/04/15 02:52:37;;;;;;;20.88;11.38;;;;;;;;;;4953941;28;20062;-82
2022/04/15 02:55:04;;;;;;;19.38;10.80;;;;;;;;;;4970652;28;20055;-85
2022/04/15 02:57:30;;;;;;;20.40;10.30;;;;;;;;;;4952001;28;20162;-82
2022/04/15 02:59:56;;;;;;;16.50;7.97;;;;;;;;;;4935071;28;20103;-82
2022/04/15 03:02:23;;;;;;;14.68;7.00;;;;;;;;;;4937897;28;20142;-84
2022/04/15 03:04:49;;;;;;;13.68;6.53;;;;;;;;;;4971744;28;20082;-83
2022/04/15 03:07:15;;;;;;;16.27;7.00;;;;;;;;;;4952144;28;20082;-82
2022/04/15 03:09:42;;;;;;;13.63;7.20;;;;;;;;;;4968422;28;20581;-83
2022/04/15 03:12:09;;;;;;;17.48;7.60;;;;;;;;;;4971804;28;20900;-84
2022/04/15 03:14:36;;;;;;;14.13;6.68;;;;;;;;;;4943325;28;20139;-83
2022/04/15 03:17:03;;;;;;;15.65;7.43;;;;;;;;;;4969335;28;20074;-84
2022/04/15 03:19:29;;;;;;;16.63;6.30;;;;;;;;;;4963800;28;20090;-85
2022/04/15 03:21:56;;;;;;;15.40;6.15;;;;;;;;;;4953349;28;20070;-83
2022/04/15 03:24:22;;;;;;;13.07;6.25;;;;;;;;;;4953677;28;20218;-83
2022/04/15 03:26:48;;;;;;;12.93;6.03;;;;;;;;;;4956101;28;20055;-83
2022/04/15 03:29:15;;;;;;;15.10;6.47;;;;;;;;;;4966426;28;20082;-84
2022/04/15 03:31:42;;;;;;;12.27;6.10;;;;;;;;;;4955806;28;20574;-83
2022/04/15 03:34:08;;;;;;;12.68;6.15;;;;;;;;;;4973571;28;20102;-84
2022/04/15 03:36:35;;;;;;;14.18;6.38;;;;;;;;;;4956190;28;20086;-84
2022/04/15 03:39:01;;;;;;;14.15;6.00;;;;;;;;;;4973704;28;20083;-83
2022/04/15 03:41:27;;;;;;;12.00;6.07;;;;;;;;;;4956470;28;20079;-84
2022/04/15 03:43:54;;;;;;;15.13;7.10;;;;;;;;;;4977285;28;20043;-83
2022/04/15 03:46:20;;;;;;;11.77;6.03;;;;;;;;;;4972402;28;20505;-84
2022/04/15 03:48:46;;;;;;;15.45;6.10;;;;;;;;;;4954154;28;20147;-82
2022/04/15 03:51:13;;;;;;;11.32;6.28;;;;;;;;;;4957548;28;20522;-83
2022/04/15 03:53:39;;;;;;;14.93;5.68;;;;;;;;;;4974884;28;20086;-83
2022/04/15 03:56:08;;;;;;;12.82;5.53;;;;;;;;;;4959069;28;20078;-84
2022/04/15 03:58:35;;;;;;;11.30;5.38;;;;;;;;;;4958794;28;20082;-82
2022/04/15 04:01:01;;;;;;;12.13;5.38;;;;;;;;;;4957937;28;20130;-84
2022/04/15 04:03:28;;;;;;;9.95;5.43;;;;;;;;;;4960274;28;20904;-84
2022/04/15 04:05:54;;;;;;;11.63;4.90;;;;;;;;;;4945788;28;20138;-83
2022/04/15 04:08:20;;;;;;;12.27;4.82;;;;;;;;;;4975809;28;20086;-84
2022/04/15 04:10:47;;;;;;;10.35;5.07;;;;;;;;;;4957522;28;20086;-84
2022/04/15 04:13:13;;;;;;;13.18;5.50;;;;;;;;;;4957025;28;20584;-82
2022/04/15 04:15:39;;;;;;;10.60;5.40;;;;;;;;;;4956683;28;20036;-82
2022/04/15 04:18:06;;;;;;;10.05;5.22;;;;;;;;;;4957294;28;20433;-83
2022/04/15 04:20:32;;;;;;;10.20;4.80;;;;;;;;;;4974585;28;20086;-82
2022/04/15 04:22:59;;;;;;;11.38;4.93;;;;;;;;;;4957135;28;20087;-83
2022/04/15 04:25:26;;;;;;;13.00;5.55;;;;;;;;;;4974428;28;20051;-82
2022/04/15 04:27:54;;;;;;;8.38;4.85;;;;;;;;;;4956135;28;20478;-83
2022/04/15 04:30:20;;;;;;;9.15;5.28;;;;;;;;;;4973148;28;20082;-82
2022/04/15 04:32:49;;;;;;;12.30;5.78;;;;;;;;;;4971758;28;20083;-83
2022/04/15 04:35:18;;;;;;;14.55;5.72;;;;;;;;;;4956371;28;20078;-83
2022/04/15 04:37:44;;;;;;;15.20;5.95;;;;;;;;;;4955759;28;20073;-84
2022/04/15 04:40:11;;;;;;;10.40;5.95;;;;;;;;;;4957336;28;20107;-84
2022/04/15 04:42:38;;;;;;;16.48;6.10;;;;;;;;;;4956038;28;20107;-82
2022/04/15 04:45:04;;;;;;;11.98;5.68;;;;;;;;;;4954473;28;20055;-84
2022/04/15 04:47:31;;;;;;;18.98;6.70;;;;;;;;;;4942071;28;20159;-83
2022/04/15 04:49:58;;;;;;;12.63;6.60;;;;;;;;;;4956642;28;20554;-83
2022/04/15 04:52:24;;;;;;;12.90;6.65;;;;;;;;;;4958538;28;20151;-83
2022/04/15 04:54:51;;;;;;;14.50;6.90;;;;;;;;;;4957161;28;20880;-83
2022/04/15 04:57:17;;;;;;;11.73;6.07;;;;;;;;;;4972842;28;20051;-84
2022/04/15 04:59:43;;;;;;;13.57;6.75;;;;;;;;;;4953692;28;20098;-84
2022/04/15 05:02:12;;;;;;;12.02;6.32;;;;;;;;;;4952305;28;20909;-84
2022/04/15 05:04:42;;;;;;;11.60;6.60;;;;;;;;;;4955522;28;20106;-82
2022/04/15 05:07:08;;;;;;;12.15;5.93;;;;;;;;;;4955487;28;20059;-83
2022/04/15 05:09:35;;;;;;;14.07;6.43;;;;;;;;;;4957802;28;20059;-81
2022/04/15 05:12:01;;;;;;;12.52;6.20;;;;;;;;;;4956389;28;20059;-82
2022/04/15 05:14:27;;;;;;;11.00;5.70;;;;;;;;;;4948753;28;20515;-82
2022/04/15 05:16:54;;;;;;;10.52;5.75;;;;;;;;;;4972553;28;20110;-82
2022/04/15 05:19:20;;;;;;;11.15;5.75;;;;;;;;;;4954727;28;20079;-84
2022/04/15 05:21:46;;;;;;;11.05;5.57;;;;;;;;;;4955565;28;20517;-83
2022/04/15 05:24:13;;;;;;;15.93;5.55;;;;;;;;;;4973721;28;20078;-84
2022/04/15 05:26:39;;;;;;;13.13;6.10;;;;;;;;;;4973573;28;20126;-81
2022/04/15 05:29:08;;;;;;;14.95;5.78;;;;;;;;;;4966821;28;20489;-82
2022/04/15 05:31:34;;;;;;;16.55;6.05;;;;;;;;;;4955807;28;20078;-81
2022/04/15 05:34:01;;;;;;;13.45;6.20;;;;;;;;;;4954828;28;20056;-83
2022/04/15 05:36:27;;;;;;;15.52;6.05;;;;;;;;;;4972861;28;20142;-83
2022/04/15 05:38:56;;;;;;;9.60;5.20;;;;;;;;;;4955817;28;20079;-82
2022/04/15 05:41:23;;;;;;;13.55;5.57;;;;;;;;;;4972244;28;21419;-83
2022/04/15 05:43:49;;;;;;;8.88;4.90;;;;;;;;;;4956592;28;20134;-83
2022/04/15 05:46:16;;;;;;;13.75;5.50;;;;;;;;;;4953011;28;20130;-83
2022/04/15 05:48:42;;;;;;;13.18;4.93;;;;;;;;;;4970460;28;20066;-81
2022/04/15 05:51:08;;;;;;;14.60;5.53;;;;;;;;;;4955034;28;20051;-80
2022/04/15 05:53:35;;;;;;;13.95;5.50;;;;;;;;;;4971676;28;20589;-80
2022/04/15 05:56:09;;;;;;;12.68;5.07;;;;;;;;;;4965303;28;20059;-82
2022/04/15 05:58:35;;;;;;;12.85;5.20;;;;;;;;;;4960663;28;20905;-81
2022/04/15 06:01:02;;;;;;;11.40;5.00;;;;;;;;;;4965446;28;21075;-80
2022/04/15 06:03:32;;;;;;;8.35;5.05;;;;;;;;;;4966322;28;20897;-80
2022/04/15 06:06:00;;;;;;;11.30;5.00;;;;;;;;;;4951774;28;20065;-81
2022/04/15 06:08:26;;;;;;;12.73;5.63;;;;;;;;;;4954758;28;20059;-83
2022/04/15 06:10:52;;;;;;;12.55;5.63;;;;;;;;;;4955335;28;20131;-83
2022/04/15 06:13:22;;;;;;;15.10;5.43;;;;;;;;;;4964860;28;20036;-81
2022/04/15 06:15:53;;;;;;;14.75;5.28;;;;;;;;;;4973269;28;20964;-81
2022/04/15 06:18:20;;;;;;;11.32;5.60;;;;;;;;;;4973187;28;20518;-83
2022/04/15 06:20:49;;;;;;;12.32;5.18;;;;;;;;;;4940251;28;20036;-80
2022/04/15 06:23:16;;;;;;;15.65;5.65;;;;;;;;;;4967645;28;20066;-82
2022/04/15 06:25:43;;;;;;;9.73;4.72;;;;;;;;;;4971967;28;20051;-83
2022/04/15 06:28:10;;;;;;;10.77;5.30;;;;;;;;;;4954155;28;20088;-83
2022/04/15 06:30:36;;;;;;;11.68;5.00;;;;;;;;;;4974249;28;20521;-81
2022/04/15 06:33:05;;;;;;;10.75;4.90;;;;;;;;;;4961634;28;20083;-81
2022/04/15 06:35:32;;;;;;;9.60;4.50;;;;;;;;;;4968907;28;20051;-81
2022/04/15 06:37:59;;;;;;;10.57;4.45;;;;;;;;;;4953862;28;20062;-82
2022/04/15 06:40:25;;;;;;;11.50;4.35;;;;;;;;;;4955108;28;20102;-81
2022/04/15 06:42:52;;;;;;;8.15;3.80;;;;;;;;;;4952783;28;20510;-81
2022/04/15 06:45:22;;;;;;;8.10;4.30;;;;;;;;;;4963400;28;20106;-81
2022/04/15 06:47:51;;;;;;;9.32;4.05;;;;;;;;;;4952607;28;20106;-80
2022/04/15 06:50:20;;;;;;;10.77;3.83;;;;;;;;;;4972005;28;20080;-81
2022/04/15 06:52:46;;;;;;;8.95;4.25;;;;;;;;;;4953576;28;20090;-80
2022/04/15 06:55:12;;;;;;;12.07;3.83;;;;;;;;;;4950394;28;20537;-80
2022/04/15 06:57:39;;;;;;;7.75;3.55;;;;;;;;;;4948505;28;20091;-82
2022/04/15 07:00:05;;;;;;;7.28;3.60;;;;;;;;;;4944238;28;20078;-82
2022/04/15 07:02:34;;;;;;;9.18;3.70;;;;;;;;;;4968227;28;20106;-81
2022/04/15 07:05:03;;;;;;;;;;;;;;;;;;4948415;28;20063;-81
2022/04/15 07:07:36;;;;;;;7.82;3.17;;;;;;;;;;4953801;28;48145;-80
2022/04/15 07:10:03;;;;;;;9.50;3.92;;;;;;;;;;4943400;28;20051;-81
2022/04/15 07:12:29;;;;;;;7.35;3.40;;;;;;;;;;4967393;28;20055;-82
2022/04/15 07:14:57;;;;;;;7.32;3.60;;;;;;;;;;4952702;28;20980;-81
2022/04/15 07:17:28;;;;;;;7.28;3.20;;;;;;;;;;4973278;28;20058;-81
2022/04/15 07:19:55;;;;;;;7.88;2.80;;;;;;;;;;4964964;28;20175;-80
2022/04/15 07:22:22;;;;;;;6.25;2.47;;;;;;;;;;4957836;28;20478;-82
2022/04/15 07:24:50;;;;;;;5.65;2.38;;;;;;;;;;4970758;28;20098;-79
2022/04/15 07:27:17;;;;;;;5.45;2.90;;;;;;;;;;4951395;28;20056;-81
2022/04/15 07:29:44;;;;;;;5.97;2.65;;;;;;;;;;4945612;28;20048;-82
2022/04/15 07:32:11;;;;;;;4.30;2.75;;;;;;;;;;4968919;28;20069;-82
2022/04/15 07:34:38;;;;;;;5.32;2.80;;;;;;;;;;4958412;28;20047;-80
2022/04/15 07:37:05;;;;;;;4.80;3.00;;;;;;;;;;4959283;28;20047;-81
2022/04/15 07:39:33;;;;;;;7.00;2.63;;;;;;;;;;4957507;28;20114;-81
2022/04/15 07:41:59;;;;;;;7.47;3.10;;;;;;;;;;4954067;28;20408;-83
2022/04/15 07:44:30;;;;;;;5.25;2.45;;;;;;;;;;4955641;28;20077;-81
2022/04/15 07:46:57;;;;;;;8.68;2.70;;;;;;;;;;4974386;28;20059;-80
2022/04/15 07:49:23;;;;;;;7.53;2.40;;;;;;;;;;4952723;28;20059;-81
2022/04/15 07:51:56;;;;;;;5.03;2.53;;;;;;;;;;4949631;28;20095;-81
2022/04/15 07:54:24;;;;;;;6.88;2.78;;;;;;;;;;4955730;28;20048;-80
2022/04/15 07:56:50;;;;;;;8.48;2.90;;;;;;;;;;4953560;28;20083;-82
2022/04/15 07:59:18;;;;;;;5.85;3.03;;;;;;;;;;4951884;28;20055;-81
2022/04/15 08:01:45;;;;;;;7.00;2.92;;;;;;;;;;4946321;28;20055;-81
2022/04/15 08:04:12;;;;;;;10.82;2.88;;;;;;;;;;4947635;28;20066;-83
2022/04/15 08:06:38;;;;;;;8.10;3.65;;;;;;;;;;4952037;28;20067;-81
2022/04/15 08:09:05;;;;;;;9.40;3.10;;;;;;;;;;4966437;28;20082;-81
2022/04/15 08:11:31;;;;;;;5.57;3.15;;;;;;;;;;4969483;28;20260;-82
2022/04/15 08:13:57;;;;;;;8.00;3.20;;;;;;;;;;4957608;28;20087;-83
2022/04/15 08:16:24;;;;;;;8.75;3.20;;;;;;;;;;4956959;28;21234;-82
2022/04/15 08:18:51;;;;;;;9.65;3.03;;;;;;;;;;4973371;28;20273;-83
2022/04/15 08:21:18;;;;;;;5.65;3.17;;;;;;;;;;4975662;28;20051;-80
2022/04/15 08:23:44;;;;;;;7.38;2.90;;;;;;;;;;4955778;28;20098;-80
2022/04/15 08:26:11;;;;;;;7.03;2.90;;;;;;;;;;4952789;28;20620;-82
2022/04/15 08:28:40;;;;;;;5.65;2.85;;;;;;;;;;4941146;28;20055;-79
2022/04/15 08:31:07;;;;;;;10.60;3.38;;;;;;;;;;4967867;28;20147;-80
2022/04/15 08:33:37;;;;;;;9.43;3.20;;;;;;;;;;4957695;28;20051;-80
2022/04/15 08:36:06;;;;;;;9.48;3.13;;;;;;;;;;4956164;28;20055;-82
2022/04/15 08:38:45;;;;;;;7.85;3.10;;;;;;;;;;4957271;28;20059;-83
2022/04/15 08:41:14;;;;;;;9.35;3.08;;;;;;;;;;4957466;28;20486;-82
2022/04/15 08:43:42;;;;;;;8.07;2.90;;;;;;;;;;4975376;28;20054;-81
2022/04/15 08:46:12;;;;;;;17.60;4.38;;;;;;;;;;4955170;28;20090;-82
2022/04/15 08:48:40;;;;;;;12.77;3.60;;;;;;;;;;4961748;28;20066;-82
2022/04/15 08:51:10;;;;;;;7.77;2.97;;;;;;;;;;4975157;28;20055;-80
2022/04/15 08:53:37;;;;;;;6.50;2.75;;;;;;;;;;4953352;28;20083;-80
2022/04/15 08:56:06;;;;;;;7.30;2.80;;;;;;;;;;4965577;28;20055;-81
2022/04/15 08:58:35;;;;;;;7.65;2.63;;;;;;;;;;4967674;28;20055;-82
2022/04/15 09:01:04;;;;;;;5.78;2.58;;;;;;;;;;4982526;28;20048;-80
2022/04/15 09:03:40;;;;;;;5.72;3.03;;;;;;;;;;4967168;28;20110;-81
2022/04/15 09:06:16;;;;;;;15.52;3.67;;;;;;;;;;4986862;28;20063;-81
2022/04/15 09:09:04;;;;;;;7.30;3.20;;;;;;;;;;4986273;28;20055;-81
2022/04/15 09:11:38;;;;;;;6.32;2.83;;;;;;;;;;4968425;28;20059;-81
2022/04/15 09:14:10;;;;;;;6.05;3.05;;;;;;;;;;4967590;28;20063;-81
2022/04/15 09:16:48;;;;;;;6.07;2.70;;;;;;;;;;4984002;28;20075;-81
2022/04/15 09:19:16;;;;;;;5.97;3.22;;;;;;;;;;4968935;28;20047;-81
2022/04/15 09:21:49;;;;;;;7.07;2.80;;;;;;;;;;4966727;28;20051;-82
2022/04/15 09:24:17;;;;;;;6.63;3.10;;;;;;;;;;4966654;28;21275;-82
2022/04/15 09:26:46;;;;;;;7.15;3.17;;;;;;;;;;4959983;28;20044;-82
2022/04/15 09:29:21;;;;;;;9.63;3.28;;;;;;;;;;4973580;28;20048;-83
2022/04/15 09:31:47;;;;;;;5.80;2.80;;;;;;;;;;4981578;28;20051;-81
2022/04/15 09:34:13;;;;;;;9.23;3.63;;;;;;;;;;4982763;28;20138;-82
2022/04/15 09:36:40;;;;;;;8.02;3.47;;;;;;;;;;4967056;28;20044;-82
2022/04/15 09:39:11;;;;;;;6.70;3.50;;;;;;;;;;4964906;28;20056;-82
2022/04/15 09:41:38;;;;;;;6.40;3.17;;;;;;;;;;4966756;28;20044;-81
2022/04/15 09:44:05;;;;;;;12.77;3.42;;;;;;;;;;4967589;28;20114;-81
2022/04/15 09:46:31;;;;;;;6.00;3.40;;;;;;;;;;4967049;28;20035;-80
2022/04/15 09:49:06;;;;;;;6.45;3.20;;;;;;;;;;4985161;28;20058;-82
2022/04/15 09:51:36;;;;;;;6.60;3.50;;;;;;;;;;4963624;28;20084;-81
2022/04/15 09:54:04;;;;;;;6.90;3.42;;;;;;;;;;4959798;28;20055;-81
2022/04/15 09:56:32;;;;;;;7.00;3.30;;;;;;;;;;4965848;28;20039;-81
2022/04/15 09:59:01;;;;;;;6.18;3.08;;;;;;;;;;4956169;28;20202;-81
2022/04/15 10:01:32;;;;;;;7.63;3.30;;;;;;;;;;4954403;28;20119;-81
2022/04/15 10:03:59;;;;;;;9.13;3.17;;;;;;;;;;4960872;28;20089;-81
2022/04/15 10:06:26;;;;;;;6.38;3.40;;;;;;;;;;4962515;28;20075;-82
2022/04/15 10:09:03;;;;;;;7.30;3.20;;;;;;;;;;4963041;28;20976;-81
2022/04/15 10:11:35;;;;;;;9.55;3.58;;;;;;;;;;4960291;28;20085;-82
2022/04/15 10:14:03;;;;;;;17.27;4.10;;;;;;;;;;4959064;28;20043;-84
2022/04/15 10:16:33;;;;;;;9.88;3.47;;;;;;;;;;4958989;28;20110;-82
2022/04/15 10:19:00;;;;;;;8.63;3.80;;;;;;;;;;4961374;28;20051;-82
2022/04/15 10:21:31;;;;;;;10.73;4.15;;;;;;;;;;4976938;28;20043;-85
2022/04/15 10:24:00;;;;;;;6.90;3.75;;;;;;;;;;4960192;28;20079;-82
2022/04/15 10:26:40;;;;;;;8.05;3.58;;;;;;;;;;4955417;28;20145;-83
2022/04/15 10:29:08;;;;;;;7.70;3.60;;;;;;;;;;4954661;28;20090;-82
2022/04/15 10:31:38;;;;;;;7.45;3.78;;;;;;;;;;4950133;28;20511;-83
2022/04/15 10:34:08;;;;;;;8.65;3.85;;;;;;;;;;4975346;28;20142;-82
2022/04/15 10:36:35;;;;;;;8.27;3.90;;;;;;;;;;4973424;28;20059;-83
2022/04/15 10:39:02;;;;;;;5.88;3.03;;;;;;;;;;4973475;28;20097;-82
2022/04/15 10:41:28;;;;;;;6.60;3.42;;;;;;;;;;4971119;28;20052;-83
2022/04/15 10:43:56;;;;;;;7.38;2.97;;;;;;;;;;4956085;28;20111;-83
2022/04/15 10:46:30;;;;;;;5.85;3.20;;;;;;;;;;4956222;28;20087;-82
2022/04/15 10:48:57;;;;;;;6.28;2.83;;;;;;;;;;4955772;28;20055;-83
2022/04/15 10:51:24;;;;;;;8.85;3.30;;;;;;;;;;4956891;28;20114;-82
2022/04/15 10:53:51;;;;;;;5.88;2.92;;;;;;;;;;4956622;28;20055;-83
2022/04/15 10:56:19;;;;;;;7.47;3.20;;;;;;;;;;4970434;28;20180;-82
2022/04/15 11:01:13;;;;;;;6.15;2.72;;;;;;;;;;4950077;28;20083;-81
2022/04/15 11:01:32;;;;;;;6.95;3.10;;;;;;;;;;4972453;28;20086;-81
2022/04/15 11:04:04;;;;;;;6.20;3.10;;;;;;;;;;4957129;28;20134;-82
2022/04/15 11:06:30;;;;;;;10.20;4.45;;;;;;;;;;4969822;28;20542;-81
2022/04/15 11:09:12;;;;;;;7.10;3.42;;;;;;;;;;4955280;28;20122;-81
2022/04/15 11:11:42;;;;;;;7.07;3.22;;;;;;;;;;4954320;28;20079;-81
2022/04/15 11:14:13;;;;;;;7.20;3.92;;;;;;;;;;4948032;28;20055;-81
2022/04/15 11:16:41;;;;;;;7.25;4.07;;;;;;;;;;4954293;28;20051;-81
2022/04/15 11:19:08;;;;;;;6.75;3.80;;;;;;;;;;4974077;28;20059;-82
2022/04/15 11:21:37;;;;;;;8.27;3.70;;;;;;;;;;4951211;28;20068;-81
2022/04/15 11:24:08;;;;;;;7.10;3.70;;;;;;;;;;4954641;28;20123;-81
2022/04/15 11:26:34;;;;;;;;;;;;;;;;;;4970047;28;20062;-82
2022/04/15 11:29:01;;;;;;;7.55;3.60;;;;;;;;;;4963400;28;47374;-82
2022/04/15 11:31:34;;;;;;;8.48;3.85;;;;;;;;;;4950125;28;20201;-81
2022/04/15 11:34:08;;;;;;;10.07;3.80;;;;;;;;;;4970749;28;20071;-81
2022/04/15 11:36:36;;;;;;;8.13;4.38;;;;;;;;;;4953103;28;20048;-82
2022/04/15 11:39:04;;;;;;;7.72;4.20;;;;;;;;;;4956103;28;20146;-82
2022/04/15 11:41:31;;;;;;;7.78;4.00;;;;;;;;;;4953267;28;20055;-82
2022/04/15 11:44:00;;;;;;;7.10;3.50;;;;;;;;;;4969587;28;20086;-81
2022/04/15 11:46:27;;;;;;;6.13;3.30;;;;;;;;;;4954227;28;20083;-81
2022/04/15 11:48:55;;;;;;;10.60;3.80;;;;;;;;;;4958858;28;20055;-80
2022/04/15 11:51:23;;;;;;;6.50;3.40;;;;;;;;;;4957641;28;20055;-80
2022/04/15 11:53:50;;;;;;;6.35;3.50;;;;;;;;;;4953579;28;20087;-80
2022/04/15 11:56:16;;;;;;;7.47;4.20;;;;;;;;;;4974046;28;20166;-79
2022/04/15 11:58:43;;;;;;;10.70;4.05;;;;;;;;;;4958620;28;20107;-80
2022/04/15 12:01:10;;;;;;;9.30;3.72;;;;;;;;;;4956328;28;20055;-80
2022/04/15 12:03:41;;;;;;;6.07;3.67;;;;;;;;;;4957221;28;20055;-80
2022/04/15 12:06:11;;;;;;;8.30;4.10;;;;;;;;;;4953398;28;20059;-80
2022/04/15 12:08:37;;;;;;;9.20;3.78;;;;;;;;;;4938525;28;20067;-78
2022/04/15 12:11:04;;;;;;;7.75;3.55;;;;;;;;;;4956619;28;20200;-80
2022/04/15 12:13:30;;;;;;;8.20;3.83;;;;;;;;;;4957413;28;20051;-80
2022/04/15 12:15:56;;;;;;;7.78;4.32;;;;;;;;;;4954213;28;20552;-80
2022/04/15 12:18:23;;;;;;;9.48;3.63;;;;;;;;;;4957872;28;20063;-80
2022/04/15 12:20:49;;;;;;;7.45;3.88;;;;;;;;;;4956353;28;20040;-80
2022/04/15 12:23:16;;;;;;;7.45;3.83;;;;;;;;;;4968886;28;20511;-79
2022/04/15 12:31:31;;;;;;;8.02;3.90;;;;;;;;;;4975407;28;20585;-80
2022/04/15 12:34:02;;;;;;;9.50;3.95;;;;;;;;;;4973322;28;20138;-80
2022/04/15 12:36:40;;;;;;;9.80;4.25;;;;;;;;;;4957171;28;20047;-79
2022/04/15 12:39:07;;;;;;;9.32;4.10;;;;;;;;;;4957423;28;20945;-80
2022/04/15 12:41:48;;;;;;;11.60;4.68;;;;;;;;;;4955989;28;20059;-80
2022/04/15 12:44:15;;;;;;;;;;;;;;;;;;4957305;28;20150;-80
2022/04/15 12:46:43;;;;;;;9.70;4.95;;;;;;;;;;4971921;28;45381;-80
2022/04/15 12:49:42;;;;;;;8.15;4.80;;;;;;;;;;4969271;28;20059;-78
2022/04/15 12:52:11;;;;;;;7.47;4.25;;;;;;;;;;4938875;28;20070;-80
2022/04/15 12:54:56;;;;;;;7.63;4.80;;;;;;;;;;4952625;28;20985;-79
2022/04/15 12:57:26;;;;;;;8.10;4.88;;;;;;;;;;4970471;28;20036;-80
2022/04/15 12:59:53;;;;;;;8.93;4.60;;;;;;;;;;4972834;28;20059;-80
2022/04/15 13:02:19;;;;;;;9.30;5.65;;;;;;;;;;4970667;28;20150;-80
2022/04/15 13:04:49;;;;;;;9.07;5.22;;;;;;;;;;4974201;28;20043;-80
2022/04/15 13:07:16;;;;;;;8.45;4.85;;;;;;;;;;4956760;28;20052;-80
2022/04/15 13:09:43;;;;;;;9.82;5.72;;;;;;;;;;4972797;28;20827;-80
2022/04/15 13:12:09;;;;;;;10.68;5.63;;;;;;;;;;4975506;28;20047;-83
2022/04/15 13:14:35;;;;;;;10.13;5.57;;;;;;;;;;4957031;28;20066;-81
2022/04/15 13:17:02;;;;;;;13.90;6.45;;;;;;;;;;4972099;28;20070;-81
2022/04/15 13:19:28;;;;;;;12.30;6.93;;;;;;;;;;4947305;28;20062;-81
2022/04/15 13:21:54;;;;;;;11.00;6.18;;;;;;;;;;4937831;28;20052;-81
2022/04/15 13:24:21;;;;;;;15.98;6.70;;;;;;;;;;4954069;28;20098;-81
2022/04/15 13:26:47;;;;;;;14.43;7.18;;;;;;;;;;4943631;28;20063;-81
2022/04/15 13:29:13;;;;;;;10.68;6.55;;;;;;;;;;4970806;28;20079;-81
2022/04/15 13:31:40;;;;;;;13.55;7.90;;;;;;;;;;4954857;28;20216;-82
2022/04/15 13:34:06;;;;;;;13.20;6.95;;;;;;;;;;4957178;28;20062;-82
2022/04/15 13:36:34;;;;;;;13.93;8.32;;;;;;;;;;4973625;28;20051;-82
2022/04/15 13:39:06;;;;;;;16.00;8.90;;;;;;;;;;4956984;28;20562;-81
2022/04/15 13:41:33;;;;;;;16.52;8.73;;;;;;;;;;4957585;28;20063;-81
2022/04/15 13:44:00;;;;;;;15.02;8.82;;;;;;;;;;4956109;28;20882;-81
2022/04/15 13:46:28;;;;;;;19.50;9.45;;;;;;;;;;4972830;28;20181;-81
2022/04/15 13:49:04;;;;;;;15.35;9.20;;;;;;;;;;4954305;28;20086;-82
2022/04/15 13:51:41;;;;;;;14.23;8.45;;;;;;;;;;4973140;28;20059;-81
2022/04/15 13:56:55;;;;;;;16.35;8.55;;;;;;;;;;4972746;28;20780;-82
2022/04/15 13:59:21;;;;;;;15.32;8.25;;;;;;;;;;4955863;28;20122;-82
2022/04/15 14:01:48;;;;;;;15.73;8.43;;;;;;;;;;4973479;28;20055;-82
2022/04/15 14:04:16;;;;;;;14.13;8.73;;;;;;;;;;4939459;28;20545;-82
2022/04/15 14:06:46;;;;;;;15.00;8.20;;;;;;;;;;4954606;28;20499;-84
2022/04/15 14:09:13;;;;;;;13.95;7.45;;;;;;;;;;4972641;28;20040;-85
2022/04/15 14:11:43;;;;;;;13.57;7.63;;;;;;;;;;4954521;28;20134;-82
2022/04/15 14:14:13;;;;;;;14.82;7.30;;;;;;;;;;4974391;28;20142;-81
2022/04/15 14:16:40;;;;;;;12.70;6.97;;;;;;;;;;4972847;28;20083;-80
2022/04/15 14:19:09;;;;;;;11.48;6.95;;;;;;;;;;4961530;28;20110;-82
2022/04/15 14:21:41;;;;;;;12.05;6.78;;;;;;;;;;4976275;28;20066;-83
2022/04/15 14:24:08;;;;;;;13.98;6.40;;;;;;;;;;4978084;28;20055;-83
2022/04/15 14:26:38;;;;;;;15.05;7.20;;;;;;;;;;4955741;28;20107;-81
2022/04/15 14:29:04;;;;;;;11.52;6.95;;;;;;;;;;4939926;28;20087;-83
2022/04/15 14:31:30;;;;;;;12.35;6.28;;;;;;;;;;4953360;28;20120;-84
2022/04/15 14:33:57;;;;;;;14.85;5.97;;;;;;;;;;4946481;28;20051;-83
2022/04/15 14:36:24;;;;;;;11.52;6.32;;;;;;;;;;4964672;28;20113;-81
2022/04/15 14:38:52;;;;;;;10.32;5.43;;;;;;;;;;4957694;28;20842;-84
2022/04/15 14:41:19;;;;;;;11.00;6.15;;;;;;;;;;4977311;28;20111;-83
2022/04/15 14:43:45;;;;;;;10.48;5.78;;;;;;;;;;4952215;28;20822;-83
2022/04/15 14:46:11;;;;;;;11.15;5.80;;;;;;;;;;4957434;28;20150;-84